Carnival Victory — 3FFL8 — position and weather

sailwx.info

Track history (hours):
 
Tides and Currents Weather Stations Pressure Air Temp Water Temp Dewpoint Dewpoint Depression Visibility Wind Speed Wind Dir Waves Ship Positions

Carnival Victory

Operator: Carnival Cruise Lines

Last reported at 2019-Mar-18 15:29 UTC. Time now 2019-Mar-18 15:56 UTC.
Position N 25°47' W 080°10'.

Type: Passenger vessel. MMSI: 355263000.

Date/timePositionNaut miles runAvg speedWind from/ knotsBaromVisibWave heightAir tempDewpointWater temp
2019-Mar-18 15:29N 25°47' W 080°10'0 0.0
2019-Mar-18 14:48N 25°47' W 080°10'0 0.0
2019-Mar-18 14:30N 25°47' W 080°10'0 0.0
2019-Mar-18 14:00N 25°47' W 080°10'0 0.0
2019-Mar-18 13:30N 25°47' W 080°10'0 0.0
2019-Mar-18 13:00N 25°47' W 080°10'0 0.0
2019-Mar-18 12:27N 25°47' W 080°10'0 0.0
2019-Mar-18 12:00N 25°47' W 080°10'0 0.0
2019-Mar-18 11:27N 25°47' W 080°10'0 0.0
2019-Mar-18 11:00N 25°47' W 080°10'1 1.8
2019-Mar-18 10:30N 25°47' W 080°11'3 5.5
2019-Mar-18 10:00N 25°46' W 080°08'611.3
2019-Mar-18 09:31N 25°47' W 080°02'5 9.4
2019-Mar-18 09:01N 25°49' W 079°58'4 8.0
2019-Mar-18 08:31N 25°52' W 079°54'4 7.4
2019-Mar-18 08:01N 25°54' W 079°50'4 8.8
2019-Mar-18 07:31N 25°56' W 079°46'5 9.1
2019-Mar-18 07:01N 25°58' W 079°42'5 9.2
2019-Mar-18 06:30N 26°01' W 079°38'5 9.2
2019-Mar-18 06:01N 26°03' W 079°34'5 9.1
2019-Mar-18 05:31N 26°06' W 079°29'5 9.4
2019-Mar-18 05:00N 26°08' W 079°25'5 9.8
2019-Mar-18 04:30N 26°11' W 079°20'4 8.0
2019-Mar-18 04:00N 26°13' W 079°16'4 8.5
2019-Mar-18 03:29N 26°16' W 079°12'1711.3
2019-Mar-18 02:00N 26°12' W 078°54'99 8.2 260 / 51017.010.8 23.020.126.5
2019-Mar-17 14:00N 25°24' W 077°18'111 3.1 270 / 31019.010.8 25.022.226.0
2019-Mar-16 02:00N 26°18' W 079°06'515.5 090 / 121020.610.8 25.022.226.7
2019-Mar-16 01:42N 26°17' W 079°11'313.3
2019-Mar-16 01:30N 26°17' W 079°14'713.4
2019-Mar-16 01:00N 26°13' W 079°20'714.1
2019-Mar-16 00:30N 26°08' W 079°25'713.6
2019-Mar-16 00:00N 26°04' W 079°32'713.7
2019-Mar-15 23:30N 26°00' W 079°38'713.4
2019-Mar-15 23:00N 25°56' W 079°44'714.3
2019-Mar-15 22:30N 25°53' W 079°51'714.1
2019-Mar-15 22:00N 25°49' W 079°58'611.8
2019-Mar-15 21:30N 25°47' W 080°04'5 9.4
2019-Mar-15 21:00N 25°46' W 080°09'2 3.9
2019-Mar-15 20:30N 25°47' W 080°11'1 1.0
2019-Mar-15 19:59N 25°47' W 080°10'0 0.0
2019-Mar-15 19:29N 25°47' W 080°10'0 0.0
2019-Mar-15 18:59N 25°47' W 080°10'0 0.0
2019-Mar-15 18:29N 25°47' W 080°10'0 0.0
2019-Mar-15 17:59N 25°47' W 080°10'0 0.0
2019-Mar-15 17:29N 25°47' W 080°10'0 0.0
2019-Mar-15 16:59N 25°47' W 080°10'0 0.0
2019-Mar-15 16:29N 25°47' W 080°10'0 0.0
2019-Mar-15 15:59N 25°47' W 080°10'0 0.0
2019-Mar-15 15:29N 25°47' W 080°10'0 0.0
2019-Mar-15 14:50N 25°47' W 080°10'0 0.0
2019-Mar-15 14:29N 25°47' W 080°10'0 0.0
2019-Mar-15 13:59N 25°47' W 080°10'0 0.0
2019-Mar-15 13:29N 25°47' W 080°10'0 0.0
2019-Mar-15 12:53N 25°47' W 080°10'0 0.0
2019-Mar-15 12:26N 25°47' W 080°10'0 0.0
2019-Mar-15 11:56N 25°47' W 080°10'0 0.0
2019-Mar-15 11:30N 25°47' W 080°10'0 0.0
2019-Mar-15 11:00N 25°47' W 080°10'0 0.8
2019-Mar-15 10:30N 25°47' W 080°10'4 8.6
2019-Mar-15 10:01N 25°46' W 080°05'510.5
2019-Mar-15 09:30N 25°44' W 079°60'612.4
2019-Mar-15 09:00N 25°40' W 079°54'713.1
2019-Mar-15 08:30N 25°34' W 079°53'713.8
2019-Mar-15 08:00N 25°27' W 079°52'816.5
2019-Mar-15 07:30N 25°19' W 079°51'8916.1
2019-Mar-15 02:00N 24°06' W 080°48'20917.4 070 / 281018.110.8 25.022.227.3
2019-Mar-14 14:00N 23°00' W 084°24'18618.2 100 / 221016.010.8 26.021.827.3
2019-Mar-14 03:48N 20°49' W 086°46'620.3
2019-Mar-14 03:30N 20°44' W 086°50'1019.9
2019-Mar-14 03:00N 20°36' W 086°56'612.6
2019-Mar-14 02:31N 20°31' W 086°59'2 3.8
2019-Mar-14 01:59N 20°29' W 086°59'0 0.0
2019-Mar-14 01:29N 20°29' W 086°59'0 0.0
2019-Mar-14 00:56N 20°29' W 086°59'0 0.0
2019-Mar-14 00:26N 20°29' W 086°59'0 0.0
2019-Mar-13 23:59N 20°29' W 086°59'0 0.0
2019-Mar-13 23:29N 20°29' W 086°59'0 0.0
2019-Mar-13 22:56N 20°29' W 086°59'0 0.0
2019-Mar-13 22:29N 20°29' W 086°59'0 0.0
2019-Mar-13 21:59N 20°29' W 086°59'0 0.0
2019-Mar-13 21:29N 20°29' W 086°59'0 0.0
2019-Mar-13 20:59N 20°29' W 086°59'0 0.0
2019-Mar-13 20:29N 20°29' W 086°59'0 0.0
2019-Mar-13 19:59N 20°29' W 086°59'0 0.0
2019-Mar-13 19:29N 20°29' W 086°59'0 0.0
2019-Mar-13 18:50N 20°29' W 086°59'0 0.0
2019-Mar-13 18:29N 20°29' W 086°59'0 0.0
2019-Mar-13 17:59N 20°29' W 086°59'0 0.0
2019-Mar-13 17:29N 20°29' W 086°59'0 0.0
2019-Mar-13 16:50N 20°29' W 086°59'0 0.0
2019-Mar-13 16:29N 20°29' W 086°59'0 0.0
2019-Mar-13 15:59N 20°29' W 086°59'0 0.2
2019-Mar-13 15:30N 20°29' W 086°59'3 6.6
2019-Mar-13 15:00N 20°32' W 086°59'510.0
2019-Mar-13 14:30N 20°36' W 086°56'712.9
2019-Mar-13 13:59N 20°40' W 086°51'21117.6
2019-Mar-13 02:00N 23°00' W 084°00'237 9.9 070 / 211018.610.8 25.020.727.4
2019-Mar-12 02:00N 24°42' W 080°06'439.6 090 / 141021.110.8 25.022.226.0
2019-Mar-12 01:54N 24°44' W 080°09'1114.5
2019-Mar-12 01:06N 24°51' W 079°59'114.3
2019-Mar-12 01:00N 24°52' W 079°57'1313.5
2019-Mar-12 00:03N 25°03' W 079°52'313.5
2019-Mar-11 23:51N 25°06' W 079°51'713.7
2019-Mar-11 23:19N 25°13' W 079°49'413.8
2019-Mar-11 23:00N 25°17' W 079°48'713.8
2019-Mar-11 22:30N 25°24' W 079°48'714.9
2019-Mar-11 22:00N 25°31' W 079°52'714.6
2019-Mar-11 21:30N 25°38' W 079°54'714.1
2019-Mar-11 21:00N 25°43' W 079°59'612.1
2019-Mar-11 20:30N 25°46' W 080°05'5 9.2
2019-Mar-11 20:00N 25°47' W 080°10'0 0.1
2019-Mar-11 19:20N 25°47' W 080°10'0 0.0
2019-Mar-11 18:59N 25°47' W 080°10'0 0.0
2019-Mar-11 18:29N 25°47' W 080°10'0 0.0
2019-Mar-11 17:59N 25°47' W 080°10'0 0.0
2019-Mar-11 17:29N 25°47' W 080°10'0 0.0
2019-Mar-11 16:59N 25°47' W 080°10'0 0.0
2019-Mar-11 16:29N 25°47' W 080°10'0 0.0
2019-Mar-11 15:59N 25°47' W 080°10'0 0.0
2019-Mar-11 15:29N 25°47' W 080°10'0 0.0
2019-Mar-11 14:53N 25°47' W 080°10'0 0.0
2019-Mar-11 14:23N 25°47' W 080°10'0 0.0
2019-Mar-11 13:59N 25°47' W 080°10'0 0.0
2019-Mar-11 13:26N 25°47' W 080°10'0 0.0
2019-Mar-11 12:59N 25°47' W 080°10'0 0.0
2019-Mar-11 12:23N 25°47' W 080°10'0 0.0
2019-Mar-11 11:59N 25°47' W 080°10'0 0.0
2019-Mar-11 11:29N 25°47' W 080°10'0 0.0
2019-Mar-11 10:59N 25°47' W 080°10'0 0.0
2019-Mar-11 10:29N 25°47' W 080°10'0 0.0
2019-Mar-11 09:56N 25°47' W 080°10'0 0.0
2019-Mar-11 09:29N 25°47' W 080°10'1 1.6
2019-Mar-11 09:00N 25°47' W 080°11'3 6.2
2019-Mar-11 08:30N 25°46' W 080°08'611.5
2019-Mar-11 08:00N 25°47' W 080°02'5 9.3
2019-Mar-11 07:30N 25°50' W 079°57'5 9.3
2019-Mar-11 07:00N 25°52' W 079°53'5 9.4
2019-Mar-11 06:30N 25°55' W 079°48'4 8.0
2019-Mar-11 06:00N 25°57' W 079°45'4 8.6
2019-Mar-11 05:30N 25°59' W 079°41'4 8.9
2019-Mar-11 05:00N 26°02' W 079°37'4 9.0
2019-Mar-11 04:30N 26°04' W 079°32'5 9.6
2019-Mar-11 04:00N 26°07' W 079°28'510.7
2019-Mar-11 03:30N 26°10' W 079°24'510.8
2019-Mar-11 03:00N 26°13' W 079°18'1010.4
2019-Mar-11 02:00N 26°18' W 079°08'2124.4
2019-Mar-11 02:00N 26°18' W 079°06'3 6.3 100 / 171022.610.8 24.021.126.3
2019-Mar-11 01:30N 26°17' W 079°03'710.4
2019-Mar-11 00:51N 26°15' W 078°56'97 8.9
2019-Mar-10 14:00N 25°24' W 077°24'99 2.8 120 / 201022.410.8 25.022.226.0
2019-Mar-09 03:00N 26°12' W 079°00'1220.0 070 / 221020.310.8 23.018.526.0
2019-Mar-09 02:24N 26°15' W 079°13'512.2
2019-Mar-09 02:00N 26°13' W 079°18'612.9
2019-Mar-09 01:30N 26°09' W 079°23'713.3
2019-Mar-09 01:00N 26°06' W 079°29'713.6
2019-Mar-09 00:30N 26°02' W 079°36'612.7
2019-Mar-09 00:00N 25°59' W 079°42'714.6
2019-Mar-08 23:30N 25°55' W 079°49'714.3
2019-Mar-08 23:00N 25°51' W 079°55'612.3
2019-Mar-08 22:30N 25°48' W 080°01'510.0
2019-Mar-08 22:00N 25°46' W 080°06'4 8.6
2019-Mar-08 21:30N 25°47' W 080°11'0 0.9
2019-Mar-08 20:58N 25°47' W 080°10'0 0.0
2019-Mar-08 20:28N 25°47' W 080°10'0 0.0
2019-Mar-08 19:58N 25°47' W 080°10'0 0.0
2019-Mar-08 19:28N 25°47' W 080°10'0 0.0
2019-Mar-08 18:58N 25°47' W 080°10'0 0.0
2019-Mar-08 18:28N 25°47' W 080°10'0 0.0
2019-Mar-08 17:58N 25°47' W 080°10'0 0.0
2019-Mar-08 17:28N 25°47' W 080°10'0 0.0
2019-Mar-08 16:58N 25°47' W 080°10'0 0.0
2019-Mar-08 16:28N 25°47' W 080°10'0 0.0
2019-Mar-08 15:55N 25°47' W 080°10'0 0.0
2019-Mar-08 15:30N 25°47' W 080°10'  
Track history (hours):
 
Tides and Currents Weather Stations Pressure Air Temp Water Temp Dewpoint Dewpoint Depression Visibility Wind Speed Wind Dir Waves Ship Positions

Carnival Victory

Operator: Carnival Cruise Lines

Last reported at 2019-Mar-18 15:29 UTC. Time now 2019-Mar-18 15:56 UTC.
Position N 25°47' W 080°10'.

Type: Passenger vessel. MMSI: 355263000.

Date/timePositionNaut miles runAvg speedWind from/ knotsBaromVisibWave heightAir tempDewpointWater temp
2019-Mar-18 15:29N 25°47' W 080°10'0 0.0
2019-Mar-18 14:48N 25°47' W 080°10'0 0.0
2019-Mar-18 14:30N 25°47' W 080°10'0 0.0
2019-Mar-18 14:00N 25°47' W 080°10'0 0.0
2019-Mar-18 13:30N 25°47' W 080°10'0 0.0
2019-Mar-18 13:00N 25°47' W 080°10'0 0.0
2019-Mar-18 12:27N 25°47' W 080°10'0 0.0
2019-Mar-18 12:00N 25°47' W 080°10'0 0.0
2019-Mar-18 11:27N 25°47' W 080°10'0 0.0
2019-Mar-18 11:00N 25°47' W 080°10'1 1.8
2019-Mar-18 10:30N 25°47' W 080°11'3 5.5
2019-Mar-18 10:00N 25°46' W 080°08'611.3
2019-Mar-18 09:31N 25°47' W 080°02'5 9.4
2019-Mar-18 09:01N 25°49' W 079°58'4 8.0
2019-Mar-18 08:31N 25°52' W 079°54'4 7.4
2019-Mar-18 08:01N 25°54' W 079°50'4 8.8
2019-Mar-18 07:31N 25°56' W 079°46'5 9.1
2019-Mar-18 07:01N 25°58' W 079°42'5 9.2
2019-Mar-18 06:30N 26°01' W 079°38'5 9.2
2019-Mar-18 06:01N 26°03' W 079°34'5 9.1
2019-Mar-18 05:31N 26°06' W 079°29'5 9.4
2019-Mar-18 05:00N 26°08' W 079°25'5 9.8
2019-Mar-18 04:30N 26°11' W 079°20'4 8.0
2019-Mar-18 04:00N 26°13' W 079°16'4 8.5
2019-Mar-18 03:29N 26°16' W 079°12'1711.3
2019-Mar-18 02:00N 26°12' W 078°54'99 8.2 260 / 51017.010.8 23.020.126.5
2019-Mar-17 14:00N 25°24' W 077°18'111 3.1 270 / 31019.010.8 25.022.226.0
2019-Mar-16 02:00N 26°18' W 079°06'515.5 090 / 121020.610.8 25.022.226.7
2019-Mar-16 01:42N 26°17' W 079°11'313.3
2019-Mar-16 01:30N 26°17' W 079°14'713.4
2019-Mar-16 01:00N 26°13' W 079°20'714.1
2019-Mar-16 00:30N 26°08' W 079°25'713.6
2019-Mar-16 00:00N 26°04' W 079°32'713.7
2019-Mar-15 23:30N 26°00' W 079°38'713.4
2019-Mar-15 23:00N 25°56' W 079°44'714.3
2019-Mar-15 22:30N 25°53' W 079°51'714.1
2019-Mar-15 22:00N 25°49' W 079°58'611.8
2019-Mar-15 21:30N 25°47' W 080°04'5 9.4
2019-Mar-15 21:00N 25°46' W 080°09'2 3.9
2019-Mar-15 20:30N 25°47' W 080°11'1 1.0
2019-Mar-15 19:59N 25°47' W 080°10'0 0.0
2019-Mar-15 19:29N 25°47' W 080°10'0 0.0
2019-Mar-15 18:59N 25°47' W 080°10'0 0.0
2019-Mar-15 18:29N 25°47' W 080°10'0 0.0
2019-Mar-15 17:59N 25°47' W 080°10'0 0.0
2019-Mar-15 17:29N 25°47' W 080°10'0 0.0
2019-Mar-15 16:59N 25°47' W 080°10'0 0.0
2019-Mar-15 16:29N 25°47' W 080°10'0 0.0
2019-Mar-15 15:59N 25°47' W 080°10'0 0.0
2019-Mar-15 15:29N 25°47' W 080°10'0 0.0
2019-Mar-15 14:50N 25°47' W 080°10'0 0.0
2019-Mar-15 14:29N 25°47' W 080°10'0 0.0
2019-Mar-15 13:59N 25°47' W 080°10'0 0.0
2019-Mar-15 13:29N 25°47' W 080°10'0 0.0
2019-Mar-15 12:53N 25°47' W 080°10'0 0.0
2019-Mar-15 12:26N 25°47' W 080°10'0 0.0
2019-Mar-15 11:56N 25°47' W 080°10'0 0.0
2019-Mar-15 11:30N 25°47' W 080°10'0 0.0
2019-Mar-15 11:00N 25°47' W 080°10'0 0.8
2019-Mar-15 10:30N 25°47' W 080°10'4 8.6
2019-Mar-15 10:01N 25°46' W 080°05'510.5
2019-Mar-15 09:30N 25°44' W 079°60'612.4
2019-Mar-15 09:00N 25°40' W 079°54'713.1
2019-Mar-15 08:30N 25°34' W 079°53'713.8
2019-Mar-15 08:00N 25°27' W 079°52'816.5
2019-Mar-15 07:30N 25°19' W 079°51'8916.1
2019-Mar-15 02:00N 24°06' W 080°48'20917.4 070 / 281018.110.8 25.022.227.3
2019-Mar-14 14:00N 23°00' W 084°24'18618.2 100 / 221016.010.8 26.021.827.3
2019-Mar-14 03:48N 20°49' W 086°46'620.3
2019-Mar-14 03:30N 20°44' W 086°50'1019.9
2019-Mar-14 03:00N 20°36' W 086°56'612.6
2019-Mar-14 02:31N 20°31' W 086°59'2 3.8
2019-Mar-14 01:59N 20°29' W 086°59'0 0.0
2019-Mar-14 01:29N 20°29' W 086°59'0 0.0
2019-Mar-14 00:56N 20°29' W 086°59'0 0.0
2019-Mar-14 00:26N 20°29' W 086°59'0 0.0
2019-Mar-13 23:59N 20°29' W 086°59'0 0.0
2019-Mar-13 23:29N 20°29' W 086°59'0 0.0
2019-Mar-13 22:56N 20°29' W 086°59'0 0.0
2019-Mar-13 22:29N 20°29' W 086°59'0 0.0
2019-Mar-13 21:59N 20°29' W 086°59'0 0.0
2019-Mar-13 21:29N 20°29' W 086°59'0 0.0
2019-Mar-13 20:59N 20°29' W 086°59'0 0.0
2019-Mar-13 20:29N 20°29' W 086°59'0 0.0
2019-Mar-13 19:59N 20°29' W 086°59'0 0.0
2019-Mar-13 19:29N 20°29' W 086°59'0 0.0
2019-Mar-13 18:50N 20°29' W 086°59'0 0.0
2019-Mar-13 18:29N 20°29' W 086°59'0 0.0
2019-Mar-13 17:59N 20°29' W 086°59'0 0.0
2019-Mar-13 17:29N 20°29' W 086°59'0 0.0
2019-Mar-13 16:50N 20°29' W 086°59'0 0.0
2019-Mar-13 16:29N 20°29' W 086°59'0 0.0
2019-Mar-13 15:59N 20°29' W 086°59'0 0.2
2019-Mar-13 15:30N 20°29' W 086°59'3 6.6
2019-Mar-13 15:00N 20°32' W 086°59'510.0
2019-Mar-13 14:30N 20°36' W 086°56'712.9
2019-Mar-13 13:59N 20°40' W 086°51'21117.6
2019-Mar-13 02:00N 23°00' W 084°00'237 9.9 070 / 211018.610.8 25.020.727.4
2019-Mar-12 02:00N 24°42' W 080°06'439.6 090 / 141021.110.8 25.022.226.0
2019-Mar-12 01:54N 24°44' W 080°09'1114.5
2019-Mar-12 01:06N 24°51' W 079°59'114.3
2019-Mar-12 01:00N 24°52' W 079°57'1313.5
2019-Mar-12 00:03N 25°03' W 079°52'313.5
2019-Mar-11 23:51N 25°06' W 079°51'713.7
2019-Mar-11 23:19N 25°13' W 079°49'413.8
2019-Mar-11 23:00N 25°17' W 079°48'713.8
2019-Mar-11 22:30N 25°24' W 079°48'714.9
2019-Mar-11 22:00N 25°31' W 079°52'714.6
2019-Mar-11 21:30N 25°38' W 079°54'714.1
2019-Mar-11 21:00N 25°43' W 079°59'612.1
2019-Mar-11 20:30N 25°46' W 080°05'5 9.2
2019-Mar-11 20:00N 25°47' W 080°10'0 0.1
2019-Mar-11 19:20N 25°47' W 080°10'0 0.0
2019-Mar-11 18:59N 25°47' W 080°10'0 0.0
2019-Mar-11 18:29N 25°47' W 080°10'0 0.0
2019-Mar-11 17:59N 25°47' W 080°10'0 0.0
2019-Mar-11 17:29N 25°47' W 080°10'0 0.0
2019-Mar-11 16:59N 25°47' W 080°10'0 0.0
2019-Mar-11 16:29N 25°47' W 080°10'0 0.0
2019-Mar-11 15:59N 25°47' W 080°10'0 0.0
2019-Mar-11 15:29N 25°47' W 080°10'0 0.0
2019-Mar-11 14:53N 25°47' W 080°10'0 0.0
2019-Mar-11 14:23N 25°47' W 080°10'0 0.0
2019-Mar-11 13:59N 25°47' W 080°10'0 0.0
2019-Mar-11 13:26N 25°47' W 080°10'0 0.0
2019-Mar-11 12:59N 25°47' W 080°10'0 0.0
2019-Mar-11 12:23N 25°47' W 080°10'0 0.0
2019-Mar-11 11:59N 25°47' W 080°10'0 0.0
2019-Mar-11 11:29N 25°47' W 080°10'0 0.0
2019-Mar-11 10:59N 25°47' W 080°10'0 0.0
2019-Mar-11 10:29N 25°47' W 080°10'0 0.0
2019-Mar-11 09:56N 25°47' W 080°10'0 0.0
2019-Mar-11 09:29N 25°47' W 080°10'1 1.6
2019-Mar-11 09:00N 25°47' W 080°11'3 6.2
2019-Mar-11 08:30N 25°46' W 080°08'611.5
2019-Mar-11 08:00N 25°47' W 080°02'5 9.3
2019-Mar-11 07:30N 25°50' W 079°57'5 9.3
2019-Mar-11 07:00N 25°52' W 079°53'5 9.4
2019-Mar-11 06:30N 25°55' W 079°48'4 8.0
2019-Mar-11 06:00N 25°57' W 079°45'4 8.6
2019-Mar-11 05:30N 25°59' W 079°41'4 8.9
2019-Mar-11 05:00N 26°02' W 079°37'4 9.0
2019-Mar-11 04:30N 26°04' W 079°32'5 9.6
2019-Mar-11 04:00N 26°07' W 079°28'510.7
2019-Mar-11 03:30N 26°10' W 079°24'510.8
2019-Mar-11 03:00N 26°13' W 079°18'1010.4
2019-Mar-11 02:00N 26°18' W 079°08'2124.4
2019-Mar-11 02:00N 26°18' W 079°06'3 6.3 100 / 171022.610.8 24.021.126.3
2019-Mar-11 01:30N 26°17' W 079°03'710.4
2019-Mar-11 00:51N 26°15' W 078°56'97 8.9
2019-Mar-10 14:00N 25°24' W 077°24'99 2.8 120 / 201022.410.8 25.022.226.0
2019-Mar-09 03:00N 26°12' W 079°00'1220.0 070 / 221020.310.8 23.018.526.0
2019-Mar-09 02:24N 26°15' W 079°13'512.2
2019-Mar-09 02:00N 26°13' W 079°18'612.9
2019-Mar-09 01:30N 26°09' W 079°23'713.3
2019-Mar-09 01:00N 26°06' W 079°29'713.6
2019-Mar-09 00:30N 26°02' W 079°36'612.7
2019-Mar-09 00:00N 25°59' W 079°42'714.6
2019-Mar-08 23:30N 25°55' W 079°49'714.3
2019-Mar-08 23:00N 25°51' W 079°55'612.3
2019-Mar-08 22:30N 25°48' W 080°01'510.0
2019-Mar-08 22:00N 25°46' W 080°06'4 8.6
2019-Mar-08 21:30N 25°47' W 080°11'0 0.9
2019-Mar-08 20:58N 25°47' W 080°10'0 0.0
2019-Mar-08 20:28N 25°47' W 080°10'0 0.0
2019-Mar-08 19:58N 25°47' W 080°10'0 0.0
2019-Mar-08 19:28N 25°47' W 080°10'0 0.0
2019-Mar-08 18:58N 25°47' W 080°10'0 0.0
2019-Mar-08 18:28N 25°47' W 080°10'0 0.0
2019-Mar-08 17:58N 25°47' W 080°10'0 0.0
2019-Mar-08 17:28N 25°47' W 080°10'0 0.0
2019-Mar-08 16:58N 25°47' W 080°10'0 0.0
2019-Mar-08 16:28N 25°47' W 080°10'0 0.0
2019-Mar-08 15:55N 25°47' W 080°10'0 0.0
2019-Mar-08 15:30N 25°47' W 080°10'  

Dump ship's entire track history